sensor_id;sensor_type;location;lat;lon;timestamp;P1;durP1;ratioP1;P2;durP2;ratioP2
9522;SDS011;63165;43.016;25.784;2023-01-23T00:01:24;18.15;;;6.57;;
9522;SDS011;63165;43.016;25.784;2023-01-23T00:03:53;26.00;;;7.68;;
9522;SDS011;63165;43.016;25.784;2023-01-23T00:06:23;21.65;;;6.88;;
9522;SDS011;63165;43.016;25.784;2023-01-23T00:08:51;21.15;;;6.68;;
9522;SDS011;63165;43.016;25.784;2023-01-23T00:11:21;15.90;;;6.75;;
9522;SDS011;63165;43.016;25.784;2023-01-23T00:13:50;24.02;;;8.02;;
9522;SDS011;63165;43.016;25.784;2023-01-23T00:16:18;22.10;;;6.57;;
9522;SDS011;63165;43.016;25.784;2023-01-23T00:18:47;22.70;;;7.13;;
9522;SDS011;63165;43.016;25.784;2023-01-23T00:21:16;19.50;;;6.40;;
9522;SDS011;63165;43.016;25.784;2023-01-23T00:23:47;19.17;;;6.20;;
9522;SDS011;63165;43.016;25.784;2023-01-23T00:26:16;15.68;;;6.80;;
9522;SDS011;63165;43.016;25.784;2023-01-23T00:28:46;15.00;;;5.50;;
9522;SDS011;63165;43.016;25.784;2023-01-23T00:31:16;22.73;;;6.80;;
9522;SDS011;63165;43.016;25.784;2023-01-23T00:33:44;23.08;;;6.68;;
9522;SDS011;63165;43.016;25.784;2023-01-23T00:36:12;20.55;;;6.68;;
9522;SDS011;63165;43.016;25.784;2023-01-23T00:38:41;22.30;;;6.90;;
9522;SDS011;63165;43.016;25.784;2023-01-23T00:41:10;23.50;;;7.43;;
9522;SDS011;63165;43.016;25.784;2023-01-23T00:43:37;21.15;;;6.22;;
9522;SDS011;63165;43.016;25.784;2023-01-23T00:46:04;20.48;;;6.53;;
9522;SDS011;63165;43.016;25.784;2023-01-23T00:48:32;16.63;;;5.90;;
9522;SDS011;63165;43.016;25.784;2023-01-23T00:50:59;22.92;;;6.38;;
9522;SDS011;63165;43.016;25.784;2023-01-23T00:53:26;15.15;;;5.97;;
9522;SDS011;63165;43.016;25.784;2023-01-23T00:55:53;16.85;;;6.05;;
9522;SDS011;63165;43.016;25.784;2023-01-23T00:58:22;30.05;;;12.35;;
9522;SDS011;63165;43.016;25.784;2023-01-23T01:00:49;21.85;;;7.53;;
9522;SDS011;63165;43.016;25.784;2023-01-23T01:03:17;14.40;;;5.95;;
9522;SDS011;63165;43.016;25.784;2023-01-23T01:05:45;18.38;;;6.15;;
9522;SDS011;63165;43.016;25.784;2023-01-23T01:08:12;14.80;;;5.57;;
9522;SDS011;63165;43.016;25.784;2023-01-23T01:10:39;24.33;;;9.23;;
9522;SDS011;63165;43.016;25.784;2023-01-23T01:13:07;18.80;;;6.88;;
9522;SDS011;63165;43.016;25.784;2023-01-23T01:15:36;35.63;;;10.98;;
9522;SDS011;63165;43.016;25.784;2023-01-23T01:18:04;25.92;;;8.80;;
9522;SDS011;63165;43.016;25.784;2023-01-23T01:20:31;25.50;;;7.50;;
9522;SDS011;63165;43.016;25.784;2023-01-23T01:22:58;23.13;;;7.63;;
9522;SDS011;63165;43.016;25.784;2023-01-23T01:25:26;23.55;;;7.10;;
9522;SDS011;63165;43.016;25.784;2023-01-23T01:27:53;21.27;;;6.30;;
9522;SDS011;63165;43.016;25.784;2023-01-23T01:30:21;20.13;;;6.78;;
9522;SDS011;63165;43.016;25.784;2023-01-23T01:32:53;25.95;;;8.85;;
9522;SDS011;63165;43.016;25.784;2023-01-23T01:35:20;21.92;;;7.50;;
9522;SDS011;63165;43.016;25.784;2023-01-23T01:37:49;26.58;;;7.63;;
9522;SDS011;63165;43.016;25.784;2023-01-23T01:40:18;20.90;;;6.85;;
9522;SDS011;63165;43.016;25.784;2023-01-23T01:42:48;18.35;;;6.20;;
9522;SDS011;63165;43.016;25.784;2023-01-23T01:48:23;19.50;;;7.10;;
9522;SDS011;63165;43.016;25.784;2023-01-23T01:50:52;22.90;;;6.93;;
9522;SDS011;63165;43.016;25.784;2023-01-23T01:53:20;18.60;;;7.13;;
9522;SDS011;63165;43.016;25.784;2023-01-23T01:55:48;28.73;;;8.25;;
9522;SDS011;63165;43.016;25.784;2023-01-23T01:58:16;26.13;;;8.02;;
9522;SDS011;63165;43.016;25.784;2023-01-23T02:00:44;24.25;;;7.43;;
9522;SDS011;63165;43.016;25.784;2023-01-23T02:03:11;22.58;;;7.65;;
9522;SDS011;63165;43.016;25.784;2023-01-23T02:05:41;19.27;;;6.80;;
9522;SDS011;63165;43.016;25.784;2023-01-23T02:08:12;18.55;;;7.38;;
9522;SDS011;63165;43.016;25.784;2023-01-23T02:10:45;19.27;;;6.82;;
9522;SDS011;63165;43.016;25.784;2023-01-23T02:13:20;31.95;;;10.10;;
9522;SDS011;63165;43.016;25.784;2023-01-23T02:15:50;36.78;;;11.00;;
9522;SDS011;63165;43.016;25.784;2023-01-23T02:18:18;48.40;;;15.23;;
9522;SDS011;63165;43.016;25.784;2023-01-23T02:20:50;33.53;;;11.75;;
9522;SDS011;63165;43.016;25.784;2023-01-23T02:23:20;26.85;;;8.77;;
9522;SDS011;63165;43.016;25.784;2023-01-23T02:25:55;24.88;;;8.43;;
9522;SDS011;63165;43.016;25.784;2023-01-23T02:28:35;25.77;;;9.18;;
9522;SDS011;63165;43.016;25.784;2023-01-23T02:31:05;33.78;;;10.75;;
9522;SDS011;63165;43.016;25.784;2023-01-23T02:33:43;28.77;;;10.20;;
9522;SDS011;63165;43.016;25.784;2023-01-23T02:36:12;21.08;;;8.23;;
9522;SDS011;63165;43.016;25.784;2023-01-23T02:38:43;33.42;;;11.82;;
9522;SDS011;63165;43.016;25.784;2023-01-23T02:41:17;32.05;;;12.35;;
9522;SDS011;63165;43.016;25.784;2023-01-23T02:43:49;40.53;;;14.38;;
9522;SDS011;63165;43.016;25.784;2023-01-23T02:46:18;38.40;;;14.35;;
9522;SDS011;63165;43.016;25.784;2023-01-23T02:48:45;32.97;;;11.15;;
9522;SDS011;63165;43.016;25.784;2023-01-23T02:51:13;26.40;;;8.80;;
9522;SDS011;63165;43.016;25.784;2023-01-23T02:53:42;30.27;;;9.20;;
9522;SDS011;63165;43.016;25.784;2023-01-23T02:56:10;28.58;;;8.73;;
9522;SDS011;63165;43.016;25.784;2023-01-23T02:58:38;22.75;;;7.53;;
9522;SDS011;63165;43.016;25.784;2023-01-23T03:01:23;20.73;;;7.78;;
9522;SDS011;63165;43.016;25.784;2023-01-23T03:03:51;22.52;;;7.80;;
9522;SDS011;63165;43.016;25.784;2023-01-23T03:06:21;26.35;;;9.48;;
9522;SDS011;63165;43.016;25.784;2023-01-23T03:08:48;24.85;;;7.93;;
9522;SDS011;63165;43.016;25.784;2023-01-23T03:11:16;31.17;;;9.55;;
9522;SDS011;63165;43.016;25.784;2023-01-23T03:13:46;33.90;;;12.20;;
9522;SDS011;63165;43.016;25.784;2023-01-23T03:16:13;29.20;;;9.85;;
9522;SDS011;63165;43.016;25.784;2023-01-23T03:18:41;22.52;;;7.38;;
9522;SDS011;63165;43.016;25.784;2023-01-23T03:21:09;25.20;;;8.27;;
9522;SDS011;63165;43.016;25.784;2023-01-23T03:23:38;34.00;;;11.43;;
9522;SDS011;63165;43.016;25.784;2023-01-23T03:26:06;29.00;;;10.07;;
9522;SDS011;63165;43.016;25.784;2023-01-23T03:28:33;21.13;;;7.60;;
9522;SDS011;63165;43.016;25.784;2023-01-23T03:31:19;26.67;;;8.20;;
9522;SDS011;63165;43.016;25.784;2023-01-23T03:33:46;24.20;;;7.50;;
9522;SDS011;63165;43.016;25.784;2023-01-23T03:36:13;20.63;;;6.97;;
9522;SDS011;63165;43.016;25.784;2023-01-23T03:38:40;39.67;;;12.98;;
9522;SDS011;63165;43.016;25.784;2023-01-23T03:41:27;33.08;;;11.57;;
9522;SDS011;63165;43.016;25.784;2023-01-23T03:43:54;39.97;;;14.70;;
9522;SDS011;63165;43.016;25.784;2023-01-23T03:46:23;46.78;;;14.00;;
9522;SDS011;63165;43.016;25.784;2023-01-23T03:48:51;57.10;;;19.80;;
9522;SDS011;63165;43.016;25.784;2023-01-23T03:51:18;63.67;;;22.40;;
9522;SDS011;63165;43.016;25.784;2023-01-23T03:53:45;62.80;;;22.25;;
9522;SDS011;63165;43.016;25.784;2023-01-23T03:56:12;59.10;;;19.83;;
9522;SDS011;63165;43.016;25.784;2023-01-23T03:58:39;42.05;;;13.05;;
9522;SDS011;63165;43.016;25.784;2023-01-23T04:01:07;30.10;;;11.40;;
9522;SDS011;63165;43.016;25.784;2023-01-23T04:03:36;32.53;;;10.57;;
9522;SDS011;63165;43.016;25.784;2023-01-23T04:06:04;48.90;;;13.57;;
9522;SDS011;63165;43.016;25.784;2023-01-23T04:08:31;30.20;;;10.63;;
9522;SDS011;63165;43.016;25.784;2023-01-23T04:11:02;35.88;;;10.85;;
9522;SDS011;63165;43.016;25.784;2023-01-23T04:13:31;42.73;;;10.80;;
9522;SDS011;63165;43.016;25.784;2023-01-23T04:15:58;34.55;;;11.07;;
9522;SDS011;63165;43.016;25.784;2023-01-23T04:18:26;32.60;;;10.57;;
9522;SDS011;63165;43.016;25.784;2023-01-23T04:20:56;32.60;;;9.75;;
9522;SDS011;63165;43.016;25.784;2023-01-23T04:23:24;32.60;;;11.52;;
9522;SDS011;63165;43.016;25.784;2023-01-23T04:25:51;37.97;;;13.20;;
9522;SDS011;63165;43.016;25.784;2023-01-23T04:28:19;41.35;;;12.65;;
9522;SDS011;63165;43.016;25.784;2023-01-23T04:30:47;35.58;;;12.90;;
9522;SDS011;63165;43.016;25.784;2023-01-23T04:33:15;31.95;;;11.15;;
9522;SDS011;63165;43.016;25.784;2023-01-23T04:35:48;34.65;;;12.18;;
9522;SDS011;63165;43.016;25.784;2023-01-23T04:38:17;35.35;;;11.07;;
9522;SDS011;63165;43.016;25.784;2023-01-23T04:40:44;33.30;;;11.35;;
9522;SDS011;63165;43.016;25.784;2023-01-23T04:43:12;40.20;;;12.63;;
9522;SDS011;63165;43.016;25.784;2023-01-23T04:45:39;52.42;;;16.50;;
9522;SDS011;63165;43.016;25.784;2023-01-23T04:48:08;36.45;;;12.75;;
9522;SDS011;63165;43.016;25.784;2023-01-23T04:50:35;30.60;;;9.95;;
9522;SDS011;63165;43.016;25.784;2023-01-23T04:53:03;33.88;;;10.65;;
9522;SDS011;63165;43.016;25.784;2023-01-23T04:55:32;36.53;;;10.43;;
9522;SDS011;63165;43.016;25.784;2023-01-23T04:58:00;30.88;;;10.52;;
9522;SDS011;63165;43.016;25.784;2023-01-23T05:00:27;39.10;;;9.05;;
9522;SDS011;63165;43.016;25.784;2023-01-23T05:02:55;32.45;;;11.57;;
9522;SDS011;63165;43.016;25.784;2023-01-23T05:05:23;58.92;;;16.88;;
9522;SDS011;63165;43.016;25.784;2023-01-23T05:07:50;38.67;;;11.77;;
9522;SDS011;63165;43.016;25.784;2023-01-23T05:10:18;37.60;;;10.85;;
9522;SDS011;63165;43.016;25.784;2023-01-23T05:12:47;28.58;;;9.15;;
9522;SDS011;63165;43.016;25.784;2023-01-23T05:15:14;33.05;;;8.70;;
9522;SDS011;63165;43.016;25.784;2023-01-23T05:17:42;28.55;;;9.82;;
9522;SDS011;63165;43.016;25.784;2023-01-23T05:20:10;47.13;;;14.75;;
9522;SDS011;63165;43.016;25.784;2023-01-23T05:22:37;42.67;;;13.45;;
9522;SDS011;63165;43.016;25.784;2023-01-23T05:25:16;29.33;;;9.45;;
9522;SDS011;63165;43.016;25.784;2023-01-23T05:27:45;29.88;;;9.75;;
9522;SDS011;63165;43.016;25.784;2023-01-23T05:30:14;27.02;;;8.95;;
9522;SDS011;63165;43.016;25.784;2023-01-23T05:32:41;26.30;;;9.27;;
9522;SDS011;63165;43.016;25.784;2023-01-23T05:35:09;36.55;;;10.93;;
9522;SDS011;63165;43.016;25.784;2023-01-23T05:37:36;33.67;;;10.93;;
9522;SDS011;63165;43.016;25.784;2023-01-23T05:40:04;42.65;;;13.10;;
9522;SDS011;63165;43.016;25.784;2023-01-23T05:42:33;40.22;;;13.20;;
9522;SDS011;63165;43.016;25.784;2023-01-23T05:45:03;33.53;;;12.18;;
9522;SDS011;63165;43.016;25.784;2023-01-23T05:47:30;38.78;;;11.48;;
9522;SDS011;63165;43.016;25.784;2023-01-23T05:49:58;33.70;;;11.02;;
9522;SDS011;63165;43.016;25.784;2023-01-23T05:52:25;35.53;;;11.55;;
9522;SDS011;63165;43.016;25.784;2023-01-23T05:54:53;44.47;;;15.70;;
9522;SDS011;63165;43.016;25.784;2023-01-23T05:57:20;36.90;;;14.75;;
9522;SDS011;63165;43.016;25.784;2023-01-23T05:59:48;35.45;;;12.27;;
9522;SDS011;63165;43.016;25.784;2023-01-23T06:02:16;28.17;;;10.18;;
9522;SDS011;63165;43.016;25.784;2023-01-23T06:04:45;29.83;;;9.35;;
9522;SDS011;63165;43.016;25.784;2023-01-23T06:07:12;23.80;;;9.10;;
9522;SDS011;63165;43.016;25.784;2023-01-23T06:09:40;24.38;;;9.30;;
9522;SDS011;63165;43.016;25.784;2023-01-23T06:12:08;32.42;;;11.43;;
9522;SDS011;63165;43.016;25.784;2023-01-23T06:14:36;32.63;;;10.20;;
9522;SDS011;63165;43.016;25.784;2023-01-23T06:17:03;33.80;;;11.50;;
9522;SDS011;63165;43.016;25.784;2023-01-23T06:19:33;39.45;;;12.73;;
9522;SDS011;63165;43.016;25.784;2023-01-23T06:22:00;42.53;;;13.15;;
9522;SDS011;63165;43.016;25.784;2023-01-23T06:24:27;32.83;;;11.35;;
9522;SDS011;63165;43.016;25.784;2023-01-23T06:26:54;45.15;;;13.65;;
9522;SDS011;63165;43.016;25.784;2023-01-23T06:29:22;48.75;;;12.50;;
9522;SDS011;63165;43.016;25.784;2023-01-23T06:31:49;40.13;;;12.95;;
9522;SDS011;63165;43.016;25.784;2023-01-23T06:34:16;42.60;;;13.18;;
9522;SDS011;63165;43.016;25.784;2023-01-23T06:36:45;42.78;;;13.18;;
9522;SDS011;63165;43.016;25.784;2023-01-23T06:39:12;42.53;;;13.75;;
9522;SDS011;63165;43.016;25.784;2023-01-23T06:41:40;43.47;;;13.85;;
9522;SDS011;63165;43.016;25.784;2023-01-23T06:44:08;48.35;;;14.23;;
9522;SDS011;63165;43.016;25.784;2023-01-23T06:46:35;35.78;;;12.05;;
9522;SDS011;63165;43.016;25.784;2023-01-23T06:49:03;51.92;;;15.00;;
9522;SDS011;63165;43.016;25.784;2023-01-23T06:51:31;57.22;;;15.80;;
9522;SDS011;63165;43.016;25.784;2023-01-23T06:54:00;48.72;;;16.77;;
9522;SDS011;63165;43.016;25.784;2023-01-23T06:56:28;57.22;;;18.65;;
9522;SDS011;63165;43.016;25.784;2023-01-23T06:58:55;45.35;;;15.60;;
9522;SDS011;63165;43.016;25.784;2023-01-23T07:01:22;50.17;;;15.70;;
9522;SDS011;63165;43.016;25.784;2023-01-23T07:03:50;47.58;;;16.23;;
9522;SDS011;63165;43.016;25.784;2023-01-23T07:06:18;47.17;;;15.98;;
9522;SDS011;63165;43.016;25.784;2023-01-23T07:08:45;48.45;;;14.85;;
9522;SDS011;63165;43.016;25.784;2023-01-23T07:11:16;38.85;;;13.15;;
9522;SDS011;63165;43.016;25.784;2023-01-23T07:13:43;42.67;;;14.35;;
9522;SDS011;63165;43.016;25.784;2023-01-23T07:16:11;48.20;;;16.27;;
9522;SDS011;63165;43.016;25.784;2023-01-23T07:18:38;37.83;;;12.98;;
9522;SDS011;63165;43.016;25.784;2023-01-23T07:21:05;37.00;;;11.77;;
9522;SDS011;63165;43.016;25.784;2023-01-23T07:23:33;38.80;;;11.15;;
9522;SDS011;63165;43.016;25.784;2023-01-23T07:26:02;41.00;;;12.38;;
9522;SDS011;63165;43.016;25.784;2023-01-23T07:28:35;55.22;;;13.73;;
9522;SDS011;63165;43.016;25.784;2023-01-23T07:31:03;47.28;;;14.38;;
9522;SDS011;63165;43.016;25.784;2023-01-23T07:33:30;73.15;;;23.73;;
9522;SDS011;63165;43.016;25.784;2023-01-23T07:35:58;51.78;;;16.95;;
9522;SDS011;63165;43.016;25.784;2023-01-23T07:38:25;78.95;;;21.58;;
9522;SDS011;63165;43.016;25.784;2023-01-23T07:40:56;135.35;;;39.13;;
9522;SDS011;63165;43.016;25.784;2023-01-23T07:43:24;86.15;;;26.73;;
9522;SDS011;63165;43.016;25.784;2023-01-23T07:45:53;107.55;;;34.50;;
9522;SDS011;63165;43.016;25.784;2023-01-23T07:48:20;110.47;;;35.55;;
9522;SDS011;63165;43.016;25.784;2023-01-23T07:50:47;71.65;;;24.10;;
9522;SDS011;63165;43.016;25.784;2023-01-23T07:53:15;66.95;;;20.52;;
9522;SDS011;63165;43.016;25.784;2023-01-23T07:55:42;62.28;;;17.98;;
9522;SDS011;63165;43.016;25.784;2023-01-23T07:58:09;62.38;;;17.85;;
9522;SDS011;63165;43.016;25.784;2023-01-23T08:00:36;60.75;;;19.95;;
9522;SDS011;63165;43.016;25.784;2023-01-23T08:03:07;46.65;;;15.30;;
9522;SDS011;63165;43.016;25.784;2023-01-23T08:05:34;48.00;;;15.23;;
9522;SDS011;63165;43.016;25.784;2023-01-23T08:08:02;38.53;;;15.07;;
9522;SDS011;63165;43.016;25.784;2023-01-23T08:10:29;58.38;;;15.13;;
9522;SDS011;63165;43.016;25.784;2023-01-23T08:12:56;38.28;;;12.45;;
9522;SDS011;63165;43.016;25.784;2023-01-23T08:15:24;41.38;;;14.23;;
9522;SDS011;63165;43.016;25.784;2023-01-23T08:17:52;41.15;;;13.57;;
9522;SDS011;63165;43.016;25.784;2023-01-23T08:20:20;44.47;;;13.70;;
9522;SDS011;63165;43.016;25.784;2023-01-23T08:22:48;40.88;;;13.55;;
9522;SDS011;63165;43.016;25.784;2023-01-23T08:25:15;37.10;;;11.65;;
9522;SDS011;63165;43.016;25.784;2023-01-23T08:27:43;53.53;;;18.90;;
9522;SDS011;63165;43.016;25.784;2023-01-23T08:30:10;41.50;;;13.57;;
9522;SDS011;63165;43.016;25.784;2023-01-23T08:32:38;41.17;;;11.80;;
9522;SDS011;63165;43.016;25.784;2023-01-23T08:35:06;31.35;;;9.45;;
9522;SDS011;63165;43.016;25.784;2023-01-23T08:37:35;25.88;;;9.20;;
9522;SDS011;63165;43.016;25.784;2023-01-23T08:40:03;31.80;;;11.35;;
9522;SDS011;63165;43.016;25.784;2023-01-23T08:42:31;32.58;;;9.65;;
9522;SDS011;63165;43.016;25.784;2023-01-23T08:44:58;29.20;;;9.63;;
9522;SDS011;63165;43.016;25.784;2023-01-23T08:47:25;34.22;;;10.05;;
9522;SDS011;63165;43.016;25.784;2023-01-23T08:49:53;27.75;;;8.50;;
9522;SDS011;63165;43.016;25.784;2023-01-23T08:52:20;42.22;;;10.75;;
9522;SDS011;63165;43.016;25.784;2023-01-23T08:54:49;27.70;;;9.52;;
9522;SDS011;63165;43.016;25.784;2023-01-23T08:57:16;27.20;;;8.93;;
9522;SDS011;63165;43.016;25.784;2023-01-23T08:59:44;28.13;;;7.72;;
9522;SDS011;63165;43.016;25.784;2023-01-23T09:02:11;30.05;;;8.55;;
9522;SDS011;63165;43.016;25.784;2023-01-23T09:04:39;26.30;;;9.00;;
9522;SDS011;63165;43.016;25.784;2023-01-23T09:07:06;22.95;;;7.40;;
9522;SDS011;63165;43.016;25.784;2023-01-23T09:09:33;18.95;;;6.10;;
9522;SDS011;63165;43.016;25.784;2023-01-23T09:12:02;14.90;;;5.20;;
9522;SDS011;63165;43.016;25.784;2023-01-23T09:14:30;17.17;;;6.32;;
9522;SDS011;63165;43.016;25.784;2023-01-23T09:16:57;13.32;;;5.45;;
9522;SDS011;63165;43.016;25.784;2023-01-23T09:19:24;15.55;;;5.78;;
9522;SDS011;63165;43.016;25.784;2023-01-23T09:21:52;19.17;;;6.00;;
9522;SDS011;63165;43.016;25.784;2023-01-23T09:24:21;17.48;;;5.05;;
9522;SDS011;63165;43.016;25.784;2023-01-23T09:26:48;33.88;;;10.85;;
9522;SDS011;63165;43.016;25.784;2023-01-23T09:29:17;13.32;;;5.07;;
9522;SDS011;63165;43.016;25.784;2023-01-23T09:31:44;17.85;;;5.03;;
9522;SDS011;63165;43.016;25.784;2023-01-23T09:34:11;17.33;;;5.57;;
9522;SDS011;63165;43.016;25.784;2023-01-23T09:36:38;10.95;;;4.97;;
9522;SDS011;63165;43.016;25.784;2023-01-23T09:39:05;18.27;;;5.50;;
9522;SDS011;63165;43.016;25.784;2023-01-23T09:41:33;16.85;;;5.15;;
9522;SDS011;63165;43.016;25.784;2023-01-23T09:44:01;15.77;;;4.95;;
9522;SDS011;63165;43.016;25.784;2023-01-23T09:46:37;12.48;;;4.88;;
9522;SDS011;63165;43.016;25.784;2023-01-23T09:49:09;19.08;;;5.97;;
9522;SDS011;63165;43.016;25.784;2023-01-23T09:51:46;20.17;;;6.18;;
9522;SDS011;63165;43.016;25.784;2023-01-23T09:54:35;23.20;;;6.68;;
9522;SDS011;63165;43.016;25.784;2023-01-23T09:57:12;20.05;;;6.68;;
9522;SDS011;63165;43.016;25.784;2023-01-23T09:59:42;38.67;;;12.00;;
9522;SDS011;63165;43.016;25.784;2023-01-23T10:02:17;21.02;;;6.05;;
9522;SDS011;63165;43.016;25.784;2023-01-23T10:04:46;23.88;;;6.90;;
9522;SDS011;63165;43.016;25.784;2023-01-23T10:13:06;13.25;;;4.60;;
9522;SDS011;63165;43.016;25.784;2023-01-23T10:15:40;18.75;;;6.25;;
9522;SDS011;63165;43.016;25.784;2023-01-23T10:18:23;15.73;;;5.20;;
9522;SDS011;63165;43.016;25.784;2023-01-23T10:20:58;18.95;;;5.75;;
9522;SDS011;63165;43.016;25.784;2023-01-23T10:23:43;16.23;;;4.93;;
9522;SDS011;63165;43.016;25.784;2023-01-23T10:26:17;18.00;;;5.38;;
9522;SDS011;63165;43.016;25.784;2023-01-23T10:28:47;15.57;;;5.70;;
9522;SDS011;63165;43.016;25.784;2023-01-23T10:31:21;17.95;;;5.38;;
9522;SDS011;63165;43.016;25.784;2023-01-23T10:33:57;16.60;;;5.40;;
9522;SDS011;63165;43.016;25.784;2023-01-23T10:36:34;16.92;;;5.50;;
9522;SDS011;63165;43.016;25.784;2023-01-23T10:39:05;19.77;;;5.68;;
9522;SDS011;63165;43.016;25.784;2023-01-23T10:41:38;17.25;;;5.45;;
9522;SDS011;63165;43.016;25.784;2023-01-23T10:44:08;16.80;;;5.47;;
9522;SDS011;63165;43.016;25.784;2023-01-23T10:46:42;13.82;;;4.78;;
9522;SDS011;63165;43.016;25.784;2023-01-23T10:49:27;15.77;;;5.13;;
9522;SDS011;63165;43.016;25.784;2023-01-23T10:51:57;14.63;;;4.50;;
9522;SDS011;63165;43.016;25.784;2023-01-23T10:54:25;15.95;;;5.22;;
9522;SDS011;63165;43.016;25.784;2023-01-23T10:56:54;17.05;;;6.53;;
9522;SDS011;63165;43.016;25.784;2023-01-23T10:59:31;13.38;;;4.80;;
9522;SDS011;63165;43.016;25.784;2023-01-23T11:02:18;11.48;;;4.90;;
9522;SDS011;63165;43.016;25.784;2023-01-23T11:04:48;17.45;;;6.47;;
9522;SDS011;63165;43.016;25.784;2023-01-23T11:07:17;13.93;;;4.97;;
9522;SDS011;63165;43.016;25.784;2023-01-23T11:09:47;13.45;;;4.80;;
9522;SDS011;63165;43.016;25.784;2023-01-23T11:12:19;18.00;;;4.85;;
9522;SDS011;63165;43.016;25.784;2023-01-23T11:14:48;13.52;;;4.63;;
9522;SDS011;63165;43.016;25.784;2023-01-23T11:17:18;14.48;;;4.82;;
9522;SDS011;63165;43.016;25.784;2023-01-23T11:19:49;13.00;;;4.60;;
9522;SDS011;63165;43.016;25.784;2023-01-23T11:25:19;13.48;;;4.85;;
9522;SDS011;63165;43.016;25.784;2023-01-23T11:27:57;18.00;;;5.00;;
9522;SDS011;63165;43.016;25.784;2023-01-23T11:30:30;19.67;;;5.30;;
9522;SDS011;63165;43.016;25.784;2023-01-23T11:33:11;11.25;;;4.45;;
9522;SDS011;63165;43.016;25.784;2023-01-23T11:35:48;17.10;;;5.05;;
9522;SDS011;63165;43.016;25.784;2023-01-23T11:38:24;11.02;;;3.38;;
9522;SDS011;63165;43.016;25.784;2023-01-23T11:40:53;12.60;;;4.70;;
9522;SDS011;63165;43.016;25.784;2023-01-23T11:43:20;11.25;;;4.28;;
9522;SDS011;63165;43.016;25.784;2023-01-23T11:45:52;17.85;;;4.45;;
9522;SDS011;63165;43.016;25.784;2023-01-23T11:48:41;18.88;;;5.22;;
9522;SDS011;63165;43.016;25.784;2023-01-23T11:51:22;14.40;;;4.97;;
9522;SDS011;63165;43.016;25.784;2023-01-23T11:53:59;16.80;;;5.80;;
9522;SDS011;63165;43.016;25.784;2023-01-23T11:56:42;14.85;;;4.88;;
9522;SDS011;63165;43.016;25.784;2023-01-23T11:59:28;33.65;;;10.85;;
9522;SDS011;63165;43.016;25.784;2023-01-23T12:02:38;18.60;;;6.38;;
9522;SDS011;63165;43.016;25.784;2023-01-23T12:08:24;20.60;;;6.50;;
9522;SDS011;63165;43.016;25.784;2023-01-23T12:11:02;22.42;;;6.20;;
9522;SDS011;63165;43.016;25.784;2023-01-23T12:13:44;16.85;;;4.63;;
9522;SDS011;63165;43.016;25.784;2023-01-23T12:16:28;16.08;;;5.60;;
9522;SDS011;63165;43.016;25.784;2023-01-23T12:19:10;17.60;;;6.15;;
9522;SDS011;63165;43.016;25.784;2023-01-23T12:21:45;19.42;;;5.18;;
9522;SDS011;63165;43.016;25.784;2023-01-23T12:24:25;17.65;;;5.80;;
9522;SDS011;63165;43.016;25.784;2023-01-23T12:27:05;14.35;;;5.18;;
9522;SDS011;63165;43.016;25.784;2023-01-23T12:29:48;29.65;;;9.57;;
9522;SDS011;63165;43.016;25.784;2023-01-23T12:32:47;20.90;;;6.28;;
9522;SDS011;63165;43.016;25.784;2023-01-23T12:35:26;24.20;;;6.50;;
9522;SDS011;63165;43.016;25.784;2023-01-23T12:38:08;20.80;;;5.90;;
9522;SDS011;63165;43.016;25.784;2023-01-23T12:40:45;12.75;;;5.07;;
9522;SDS011;63165;43.016;25.784;2023-01-23T12:43:17;17.20;;;5.20;;
9522;SDS011;63165;43.016;25.784;2023-01-23T12:45:50;15.93;;;5.28;;
9522;SDS011;63165;43.016;25.784;2023-01-23T12:48:24;16.63;;;5.22;;
9522;SDS011;63165;43.016;25.784;2023-01-23T12:50:56;18.48;;;5.43;;
9522;SDS011;63165;43.016;25.784;2023-01-23T12:53:29;16.25;;;5.32;;
9522;SDS011;63165;43.016;25.784;2023-01-23T12:56:03;17.58;;;6.22;;
9522;SDS011;63165;43.016;25.784;2023-01-23T12:58:36;12.38;;;4.53;;
9522;SDS011;63165;43.016;25.784;2023-01-23T13:01:11;19.92;;;5.35;;
9522;SDS011;63165;43.016;25.784;2023-01-23T13:03:55;18.90;;;5.70;;
9522;SDS011;63165;43.016;25.784;2023-01-23T13:06:37;13.75;;;5.20;;
9522;SDS011;63165;43.016;25.784;2023-01-23T13:09:21;17.75;;;5.70;;
9522;SDS011;63165;43.016;25.784;2023-01-23T13:12:03;17.85;;;5.65;;
9522;SDS011;63165;43.016;25.784;2023-01-23T13:14:43;19.83;;;5.68;;
9522;SDS011;63165;43.016;25.784;2023-01-23T13:23:23;19.77;;;5.57;;
9522;SDS011;63165;43.016;25.784;2023-01-23T13:28:56;16.48;;;5.13;;
9522;SDS011;63165;43.016;25.784;2023-01-23T13:40:19;20.17;;;5.63;;
9522;SDS011;63165;43.016;25.784;2023-01-23T13:42:49;16.27;;;5.35;;
9522;SDS011;63165;43.016;25.784;2023-01-23T13:45:22;23.70;;;5.80;;
9522;SDS011;63165;43.016;25.784;2023-01-23T13:48:00;16.23;;;5.55;;
9522;SDS011;63165;43.016;25.784;2023-01-23T13:51:00;23.33;;;5.88;;
9522;SDS011;63165;43.016;25.784;2023-01-23T13:53:33;18.40;;;5.57;;
9522;SDS011;63165;43.016;25.784;2023-01-23T13:56:26;22.52;;;6.00;;
9522;SDS011;63165;43.016;25.784;2023-01-23T13:59:18;22.02;;;6.68;;
9522;SDS011;63165;43.016;25.784;2023-01-23T14:01:57;22.23;;;7.15;;
9522;SDS011;63165;43.016;25.784;2023-01-23T14:04:55;19.77;;;5.82;;
9522;SDS011;63165;43.016;25.784;2023-01-23T14:07:39;20.45;;;6.28;;
9522;SDS011;63165;43.016;25.784;2023-01-23T14:13:05;28.20;;;8.02;;
9522;SDS011;63165;43.016;25.784;2023-01-23T14:15:34;26.67;;;7.70;;
9522;SDS011;63165;43.016;25.784;2023-01-23T14:21:17;23.20;;;6.22;;
9522;SDS011;63165;43.016;25.784;2023-01-23T14:23:48;20.88;;;6.88;;
9522;SDS011;63165;43.016;25.784;2023-01-23T14:26:17;22.15;;;6.57;;
9522;SDS011;63165;43.016;25.784;2023-01-23T14:28:50;22.02;;;5.95;;
9522;SDS011;63165;43.016;25.784;2023-01-23T14:31:22;26.65;;;7.05;;
9522;SDS011;63165;43.016;25.784;2023-01-23T14:33:58;23.10;;;6.47;;
9522;SDS011;63165;43.016;25.784;2023-01-23T14:36:28;21.88;;;6.43;;
9522;SDS011;63165;43.016;25.784;2023-01-23T14:38:58;19.60;;;6.50;;
9522;SDS011;63165;43.016;25.784;2023-01-23T14:41:28;17.70;;;6.00;;
9522;SDS011;63165;43.016;25.784;2023-01-23T14:43:58;20.05;;;6.80;;
9522;SDS011;63165;43.016;25.784;2023-01-23T14:46:33;29.98;;;6.32;;
9522;SDS011;63165;43.016;25.784;2023-01-23T14:49:04;20.00;;;5.97;;
9522;SDS011;63165;43.016;25.784;2023-01-23T14:51:34;23.42;;;6.60;;
9522;SDS011;63165;43.016;25.784;2023-01-23T14:54:03;23.90;;;7.07;;
9522;SDS011;63165;43.016;25.784;2023-01-23T14:56:32;19.70;;;6.22;;
9522;SDS011;63165;43.016;25.784;2023-01-23T14:59:02;21.48;;;6.72;;
9522;SDS011;63165;43.016;25.784;2023-01-23T15:01:32;26.27;;;6.80;;
9522;SDS011;63165;43.016;25.784;2023-01-23T15:04:01;29.38;;;7.63;;
9522;SDS011;63165;43.016;25.784;2023-01-23T15:06:31;23.05;;;5.95;;
9522;SDS011;63165;43.016;25.784;2023-01-23T15:09:04;22.80;;;5.63;;
9522;SDS011;63165;43.016;25.784;2023-01-23T15:11:33;19.63;;;5.00;;
9522;SDS011;63165;43.016;25.784;2023-01-23T15:14:01;23.83;;;6.38;;
9522;SDS011;63165;43.016;25.784;2023-01-23T15:16:29;19.48;;;6.80;;
9522;SDS011;63165;43.016;25.784;2023-01-23T15:19:01;22.65;;;6.60;;
9522;SDS011;63165;43.016;25.784;2023-01-23T15:21:34;23.30;;;6.18;;
9522;SDS011;63165;43.016;25.784;2023-01-23T15:24:15;34.85;;;6.88;;
9522;SDS011;63165;43.016;25.784;2023-01-23T15:26:56;25.90;;;6.70;;
9522;SDS011;63165;43.016;25.784;2023-01-23T15:29:25;21.80;;;6.82;;
9522;SDS011;63165;43.016;25.784;2023-01-23T15:31:53;28.52;;;7.43;;